»·PEaware :: N654BR KSBP-KMYF

N654BR :: KSBP-KMYF

FLIGHT INFORMATION

Flight Status: Arrived
Operator: Privately registered:
United States
More flights under this callsign
Pilot: Scott P. (30664)
Aircraft: CESSNA 177 CARDINAL
(C177)
More flights by this aircraft type
Origin: KSBP San Luis Co Regl
United States
Destination: KMYF Montgomery
United States
More flights between these airports :: More routes between these airports
Route: +
File this flight plan on PilotEdge
Remarks:
Altitude:
(Current/Filed)
9,500ft
Speed:
(Current/Filed)
150kts
Departed: 30-Jul-20 03:43 PM
Arrived: 30-Jul-20 05:30 PM
Distance/Time
Traveled:
227nm/1:47
Distance/Time
To Go:
Arrived

Flight Plot

Page will automatically refresh every two minutes.


Map Options




Map Legend


Flown Route
Filed Route
Departure Airport
Arrival Airport
Navaid (VOR, NDB)
Fix

Horizontal Profiles

Position Reports

Time Latitude Longitude Heading Altitude Ground
Speed
30-Jul-20 15:30 35.238313 -120.640182 215 215ft 0kts
30-Jul-20 15:31 35.238313 -120.640182 215 215ft 0kts
30-Jul-20 15:31 35.238313 -120.640182 215 215ft 0kts
30-Jul-20 15:32 35.238313 -120.640182 215 215ft 0kts
30-Jul-20 15:33 35.238313 -120.640182 215 215ft 0kts
30-Jul-20 15:34 35.238313 -120.640182 215 215ft 0kts
30-Jul-20 15:35 35.238261 -120.640225 214 215ft 2kts
30-Jul-20 15:36 35.236709 -120.638000 125 215ft 14kts
30-Jul-20 15:37 35.234126 -120.633486 126 215ft 14kts
30-Jul-20 15:38 35.233079 -120.632100 294 215ft 0kts
30-Jul-20 15:39 35.233079 -120.632100 294 215ft 0kts
30-Jul-20 15:40 35.233086 -120.632143 285 215ft 0kts
30-Jul-20 15:41 35.233450 -120.634190 304 215ft 40kts
30-Jul-20 15:42 35.245272 -120.655646 278 888ft 84kts
30-Jul-20 15:43 35.230047 -120.654514 121 1583ft 93kts
30-Jul-20 15:44 35.216925 -120.626944 117 2364ft 93kts
30-Jul-20 15:45 35.204083 -120.599273 118 3137ft 91kts
30-Jul-20 15:46 35.191112 -120.569347 116 3646ft 109kts
30-Jul-20 15:47 35.176765 -120.534673 116 4054ft 116kts
30-Jul-20 15:48 35.161067 -120.496760 116 4467ft 130kts
30-Jul-20 15:49 35.145145 -120.458422 116 5046ft 123kts
30-Jul-20 15:50 35.128778 -120.422110 118 5642ft 120kts
30-Jul-20 15:51 35.112633 -120.386866 119 6238ft 117kts
30-Jul-20 15:52 35.098006 -120.355319 119 6784ft 117kts
30-Jul-20 15:53 35.083701 -120.325134 119 7310ft 116kts
30-Jul-20 15:54 35.068979 -120.291879 117 7888ft 113kts
30-Jul-20 15:55 35.054247 -120.258214 117 8484ft 111kts
30-Jul-20 15:56 35.039848 -120.225356 117 9081ft 108kts
30-Jul-20 15:57 35.025341 -120.192289 117 9475ft 122kts
30-Jul-20 15:58 35.007436 -120.152991 118 9491ft 138kts
30-Jul-20 15:59 34.988454 -120.111692 118 9490ft 140kts
30-Jul-20 16:00 34.969327 -120.070152 118 9490ft 140kts
30-Jul-20 16:01 34.950155 -120.028570 118 9490ft 140kts
30-Jul-20 16:02 34.930961 -119.987003 118 9490ft 140kts
30-Jul-20 16:03 34.911677 -119.945301 118 9490ft 140kts
30-Jul-20 16:04 34.892585 -119.904073 119 9490ft 140kts
30-Jul-20 16:05 34.873394 -119.862685 119 9490ft 140kts
30-Jul-20 16:06 34.854717 -119.822465 119 9490ft 139kts
30-Jul-20 16:07 34.835640 -119.781436 119 9490ft 138kts
30-Jul-20 16:08 34.816721 -119.740801 119 9490ft 137kts
30-Jul-20 16:09 34.798102 -119.700873 119 9629ft 130kts
30-Jul-20 16:10 34.780543 -119.663276 119 9923ft 125kts
30-Jul-20 16:11 34.763356 -119.626523 119 10221ft 124kts
30-Jul-20 16:12 34.746260 -119.590015 119 10487ft 126kts
30-Jul-20 16:13 34.727919 -119.550888 119 10491ft 136kts
30-Jul-20 16:14 34.708972 -119.510539 119 10490ft 138kts
30-Jul-20 16:15 34.689879 -119.469936 119 10490ft 138kts
30-Jul-20 16:16 34.668678 -119.431351 134 10490ft 138kts
30-Jul-20 16:17 34.641393 -119.398422 133 10490ft 138kts
30-Jul-20 16:18 34.614629 -119.364689 132 10490ft 138kts
30-Jul-20 16:19 34.587856 -119.330648 133 10490ft 138kts
30-Jul-20 16:20 34.561345 -119.296907 133 10490ft 138kts
30-Jul-20 16:21 34.534676 -119.262987 133 10490ft 138kts
30-Jul-20 16:22 34.508095 -119.229210 133 10490ft 138kts
30-Jul-20 16:23 34.481428 -119.195355 133 10490ft 138kts
30-Jul-20 16:24 34.454719 -119.161483 133 10490ft 138kts
30-Jul-20 16:25 34.428153 -119.127824 133 10490ft 138kts
30-Jul-20 16:26 34.402439 -119.095276 133 10490ft 138kts
30-Jul-20 16:27 34.375800 -119.061588 133 10490ft 138kts
30-Jul-20 16:28 34.349671 -119.028580 133 10490ft 138kts
30-Jul-20 16:29 34.322929 -118.994829 133 10490ft 138kts
30-Jul-20 16:30 34.296204 -118.961133 133 10490ft 138kts
30-Jul-20 16:31 34.270189 -118.928364 133 10490ft 138kts
30-Jul-20 16:32 34.243440 -118.894702 133 10490ft 138kts
30-Jul-20 16:33 34.216739 -118.861134 133 10490ft 138kts
30-Jul-20 16:34 34.190006 -118.827558 133 10490ft 138kts
30-Jul-20 16:35 34.164675 -118.795781 133 10484ft 114kts
30-Jul-20 16:36 34.146704 -118.773190 133 10495ft 122kts
30-Jul-20 16:37 34.122392 -118.742755 133 10491ft 135kts
30-Jul-20 16:38 34.095660 -118.709320 133 10490ft 138kts
30-Jul-20 16:39 34.069002 -118.675996 133 10490ft 138kts
30-Jul-20 16:40 34.042408 -118.642764 133 10490ft 138kts
30-Jul-20 16:41 34.015712 -118.609453 133 10499ft 138kts
30-Jul-20 16:42 33.988935 -118.576071 133 10499ft 138kts
30-Jul-20 16:43 33.962039 -118.542570 133 10499ft 138kts
30-Jul-20 16:44 33.936013 -118.510183 133 10499ft 138kts
30-Jul-20 16:45 33.909177 -118.476820 133 10499ft 138kts
30-Jul-20 16:46 33.886216 -118.448301 133 10499ft 138kts
30-Jul-20 16:47 33.859309 -118.414912 133 10499ft 138kts
30-Jul-20 16:48 33.832414 -118.381568 133 10499ft 138kts
30-Jul-20 16:49 33.806213 -118.349126 133 10499ft 138kts
30-Jul-20 16:50 33.779411 -118.315946 133 10509ft 138kts
30-Jul-20 16:51 33.752558 -118.282746 133 10509ft 138kts
30-Jul-20 16:52 33.725689 -118.249567 133 10509ft 138kts
30-Jul-20 16:53 33.698929 -118.216550 133 10509ft 138kts
30-Jul-20 16:54 33.671991 -118.183343 133 10509ft 138kts
30-Jul-20 16:55 33.644936 -118.150023 133 10509ft 138kts
30-Jul-20 16:56 33.618051 -118.116945 133 10509ft 138kts
30-Jul-20 16:57 33.591049 -118.083753 133 10509ft 138kts
30-Jul-20 16:58 33.567283 -118.054565 133 10509ft 138kts
30-Jul-20 16:59 33.540235 -118.021378 133 10509ft 138kts
30-Jul-20 17:00 33.513238 -117.988283 133 10509ft 138kts
30-Jul-20 17:01 33.486267 -117.955253 133 10509ft 138kts
30-Jul-20 17:02 33.459244 -117.922189 133 10509ft 138kts
30-Jul-20 17:03 33.432309 -117.889265 133 10509ft 138kts
30-Jul-20 17:04 33.405278 -117.856253 133 10509ft 138kts
30-Jul-20 17:05 33.378334 -117.823381 133 10509ft 138kts
30-Jul-20 17:06 33.351234 -117.790345 133 10507ft 138kts
30-Jul-20 17:07 33.322198 -117.754995 134 10021ft 154kts
30-Jul-20 17:09 33.291841 -117.718081 134 9519ft 155kts
30-Jul-20 17:10 33.261427 -117.681119 134 9015ft 155kts
30-Jul-20 17:11 33.231171 -117.644386 134 8514ft 155kts
30-Jul-20 17:12 33.200891 -117.607660 134 8011ft 154kts
30-Jul-20 17:13 33.174090 -117.575189 133 7393ft 140kts
30-Jul-20 17:14 33.145505 -117.539484 132 6703ft 152kts
30-Jul-20 17:15 33.117619 -117.504900 133 6525ft 136kts
30-Jul-20 17:16 33.091492 -117.473294 133 6527ft 133kts
30-Jul-20 17:17 33.065480 -117.441883 133 6527ft 132kts
30-Jul-20 17:18 33.039437 -117.410466 133 6527ft 132kts
30-Jul-20 17:19 33.011855 -117.379725 143 6406ft 135kts
30-Jul-20 17:20 32.981487 -117.352391 139 6285ft 136kts
30-Jul-20 17:21 32.949669 -117.324583 145 5352ft 139kts
30-Jul-20 17:22 32.918445 -117.297931 140 4267ft 135kts
30-Jul-20 17:23 32.888964 -117.272960 148 3561ft 124kts
30-Jul-20 17:24 32.859142 -117.251954 144 3043ft 119kts
30-Jul-20 17:24 32.839694 -117.229725 125 3038ft 124kts
30-Jul-20 17:26 32.822636 -117.191501 114 2209ft 107kts
30-Jul-20 17:27 32.812218 -117.161774 113 1448ft 94kts
30-Jul-20 17:27 32.804669 -117.140451 109 1297ft 77kts
30-Jul-20 17:28 32.811802 -117.128906 306 600ft 67kts
30-Jul-20 17:30 32.815679 -117.141137 245 416ft 0kts
30-Jul-20 17:30 32.815679 -117.141137 245 416ft 0kts
30-Jul-20 17:31 32.814591 -117.141329 115 416ft 14kts
30-Jul-20 17:32 32.813365 -117.139706 15 416ft 1kts
30-Jul-20 17:33 32.813456 -117.139660 26 416ft 0kts
30-Jul-20 17:34 32.813456 -117.139660 26 416ft 0kts
30-Jul-20 17:35 32.813456 -117.139660 26 416ft 0kts
30-Jul-20 17:36 32.813456 -117.139660 26 416ft 0kts
30-Jul-20 17:37 32.813456 -117.139660 26 416ft 0kts
30-Jul-20 17:38 32.813456 -117.139660 26 416ft 0kts
30-Jul-20 17:39 32.813456 -117.139660 26 416ft 0kts
30-Jul-20 17:40 32.813456 -117.139660 26 416ft 0kts
30-Jul-20 17:41 32.813456 -117.139660 26 416ft 0kts
30-Jul-20 17:42 32.813456 -117.139660 26 416ft 0kts
30-Jul-20 17:43 32.813456 -117.139660 26 416ft 0kts

Navigation Log

Ident Type
Flight plan parsing failed, navigation log unavailable